createdAt,value
2023-03-29T00:01:10.055Z,2.85
2023-03-29T00:03:39.453Z,3.47
2023-03-29T00:06:15.113Z,3.28
2023-03-29T00:08:42.434Z,3.30
2023-03-29T00:11:09.369Z,3.55
2023-03-29T00:13:36.615Z,3.00
2023-03-29T00:16:03.600Z,3.22
2023-03-29T00:18:30.569Z,3.00
2023-03-29T00:21:00.705Z,3.33
2023-03-29T00:23:28.163Z,2.88
2023-03-29T00:25:56.296Z,3.30
2023-03-29T00:28:23.842Z,3.17
2023-03-29T00:30:55.489Z,3.13
2023-03-29T00:33:24.706Z,3.03
2023-03-29T00:35:55.493Z,2.92
2023-03-29T00:38:22.382Z,2.80
2023-03-29T00:40:51.361Z,2.70
2023-03-29T00:43:21.244Z,2.72
2023-03-29T00:45:48.320Z,3.25
2023-03-29T00:48:23.877Z,2.50
2023-03-29T00:51:06.200Z,3.00
2023-03-29T00:53:39.705Z,2.50
2023-03-29T00:56:14.397Z,2.67
2023-03-29T00:58:52.401Z,2.40
2023-03-29T01:01:38.119Z,2.55
2023-03-29T01:04:24.093Z,2.65
2023-03-29T01:07:00.523Z,2.60
2023-03-29T01:09:33.456Z,2.58
2023-03-29T01:12:08.808Z,2.65
2023-03-29T01:14:45.988Z,2.70
2023-03-29T01:17:12.883Z,2.45
2023-03-29T01:19:51.615Z,2.80
2023-03-29T01:23:01.366Z,2.60
2023-03-29T01:25:43.257Z,2.38
2023-03-29T01:28:21.209Z,2.25
2023-03-29T01:31:07.426Z,2.25
2023-03-29T01:33:43.435Z,2.55
2023-03-29T01:36:19.270Z,2.45
2023-03-29T01:39:03.500Z,2.42
2023-03-29T01:42:10.990Z,2.42
2023-03-29T01:45:06.472Z,2.60
2023-03-29T01:47:55.812Z,2.55
2023-03-29T01:50:37.046Z,2.22
2023-03-29T01:53:20.253Z,2.40
2023-03-29T01:55:54.775Z,2.90
2023-03-29T01:58:31.325Z,2.47
2023-03-29T02:01:00.291Z,2.20
2023-03-29T02:03:31.005Z,2.80
2023-03-29T02:06:00.634Z,2.50
2023-03-29T02:08:28.364Z,2.60
2023-03-29T02:10:57.873Z,2.38
2023-03-29T02:13:27.850Z,2.38
2023-03-29T02:15:54.901Z,2.30
2023-03-29T02:18:24.789Z,2.47
2023-03-29T02:20:55.541Z,2.38
2023-03-29T02:23:34.143Z,2.13
2023-03-29T02:26:03.378Z,2.63
2023-03-29T02:28:31.815Z,2.30
2023-03-29T02:31:39.199Z,2.40
2023-03-29T02:34:29.351Z,2.60
2023-03-29T02:37:04.208Z,2.15
2023-03-29T02:39:35.805Z,2.30
2023-03-29T02:44:36.416Z,1.80
2023-03-29T02:47:15.101Z,2.00
2023-03-29T02:49:47.081Z,2.35
2023-03-29T02:52:23.918Z,2.20
2023-03-29T02:54:55.931Z,2.30
2023-03-29T02:57:26.647Z,1.92
2023-03-29T02:59:56.962Z,2.03
2023-03-29T03:02:27.810Z,2.13
2023-03-29T03:04:57.633Z,2.33
2023-03-29T03:07:29.127Z,2.30
2023-03-29T03:09:56.998Z,2.30
2023-03-29T03:12:24.139Z,2.40
2023-03-29T03:14:51.633Z,2.15
2023-03-29T03:17:21.046Z,2.47
2023-03-29T03:19:47.913Z,2.22
2023-03-29T03:22:19.389Z,2.20
2023-03-29T03:24:46.262Z,2.38
2023-03-29T03:27:13.671Z,2.45
2023-03-29T03:29:41.389Z,2.33
2023-03-29T03:32:08.365Z,2.22
2023-03-29T03:34:35.660Z,2.70
2023-03-29T03:37:05.032Z,2.63
2023-03-29T03:39:34.441Z,2.25
2023-03-29T03:42:01.339Z,2.40
2023-03-29T03:44:28.225Z,2.17
2023-03-29T03:46:57.442Z,2.42
2023-03-29T03:49:24.361Z,2.90
2023-03-29T03:51:53.363Z,2.80
2023-03-29T03:54:20.262Z,2.80
2023-03-29T03:56:49.666Z,2.60
2023-03-29T03:59:16.807Z,2.67
2023-03-29T04:01:43.918Z,2.40
2023-03-29T04:04:16.498Z,2.33
2023-03-29T04:06:44.233Z,2.08
2023-03-29T04:09:11.278Z,2.17
2023-03-29T04:11:40.838Z,2.10
2023-03-29T04:14:07.903Z,2.35
2023-03-29T04:16:37.410Z,2.30
2023-03-29T04:19:04.251Z,2.20
2023-03-29T04:21:31.080Z,2.10
2023-03-29T04:23:58.014Z,2.10
2023-03-29T04:26:27.200Z,2.20
2023-03-29T04:28:54.094Z,1.98
2023-03-29T04:31:21.141Z,2.53
2023-03-29T04:33:51.679Z,2.22
2023-03-29T04:36:21.396Z,2.20
2023-03-29T04:38:48.835Z,2.42
2023-03-29T04:41:15.733Z,2.20
2023-03-29T04:43:47.616Z,2.05
2023-03-29T04:46:18.431Z,2.15
2023-03-29T04:48:50.180Z,2.53
2023-03-29T04:51:20.157Z,2.40
2023-03-29T04:53:49.692Z,2.40
2023-03-29T04:56:17.257Z,2.60
2023-03-29T04:58:44.574Z,2.70
2023-03-29T05:01:11.666Z,2.58
2023-03-29T05:03:43.356Z,2.75
2023-03-29T05:06:12.064Z,2.60
2023-03-29T05:08:42.486Z,2.67
2023-03-29T05:11:13.596Z,2.90
2023-03-29T05:13:40.511Z,2.97
2023-03-29T05:16:08.752Z,3.95
2023-03-29T05:18:37.988Z,4.28
2023-03-29T05:21:09.479Z,3.60
2023-03-29T05:23:36.305Z,3.22
2023-03-29T05:26:04.645Z,3.88
2023-03-29T05:28:33.946Z,3.05
2023-03-29T05:31:05.801Z,2.78
2023-03-29T05:33:33.613Z,2.75
2023-03-29T05:36:05.459Z,2.70
2023-03-29T05:38:35.013Z,3.13
2023-03-29T05:41:10.756Z,2.90
2023-03-29T05:43:42.431Z,2.75
2023-03-29T05:48:39.540Z,2.50
2023-03-29T05:51:09.452Z,3.03
2023-03-29T05:53:41.750Z,2.63
2023-03-29T05:56:11.637Z,2.50
2023-03-29T05:58:39.311Z,2.60
2023-03-29T06:01:14.781Z,2.60
2023-03-29T06:03:43.973Z,2.45
2023-03-29T06:06:11.050Z,2.95
2023-03-29T06:08:45.416Z,2.25
2023-03-29T06:11:13.503Z,2.22
2023-03-29T06:13:42.061Z,2.63
2023-03-29T06:16:13.430Z,2.40
2023-03-29T06:18:41.131Z,2.95
2023-03-29T06:21:09.460Z,2.72
2023-03-29T06:23:36.965Z,2.42
2023-03-29T06:26:05.913Z,2.90
2023-03-29T06:28:35.917Z,3.00
2023-03-29T06:31:05.239Z,3.03
2023-03-29T06:33:34.107Z,3.58
2023-03-29T06:36:01.846Z,2.78
2023-03-29T06:38:28.819Z,2.72
2023-03-29T06:41:07.405Z,2.35
2023-03-29T06:43:37.690Z,2.70
2023-03-29T06:46:08.783Z,2.40
2023-03-29T06:48:36.021Z,2.60
2023-03-29T06:51:03.080Z,2.90
2023-03-29T06:53:32.702Z,2.72
2023-03-29T06:56:00.009Z,2.67
2023-03-29T06:58:31.539Z,2.78
2023-03-29T07:01:05.380Z,2.63
2023-03-29T07:03:36.022Z,2.53
2023-03-29T07:06:04.381Z,2.70
2023-03-29T07:08:35.243Z,2.55
2023-03-29T07:11:03.396Z,2.67
2023-03-29T07:13:30.658Z,2.33
2023-03-29T07:16:00.473Z,2.70
2023-03-29T07:18:29.794Z,2.42
2023-03-29T07:20:58.768Z,2.45
2023-03-29T07:23:28.232Z,2.72
2023-03-29T07:25:57.408Z,2.40
2023-03-29T07:28:24.297Z,2.85
2023-03-29T07:30:51.607Z,3.45
2023-03-29T07:33:18.799Z,2.67
2023-03-29T07:35:48.014Z,2.13
2023-03-29T07:38:17.506Z,2.38
2023-03-29T07:40:46.875Z,2.33
2023-03-29T07:43:13.701Z,2.38
2023-03-29T07:45:46.851Z,2.45
2023-03-29T07:48:14.541Z,2.78
2023-03-29T07:50:43.236Z,2.30
2023-03-29T07:53:13.614Z,2.50
2023-03-29T07:55:47.738Z,2.80
2023-03-29T07:58:16.098Z,2.83
2023-03-29T08:00:45.346Z,2.40
2023-03-29T08:03:13.227Z,1.90
2023-03-29T08:05:42.057Z,2.10
2023-03-29T08:08:09.689Z,2.03
2023-03-29T08:10:39.389Z,2.15
2023-03-29T08:13:09.090Z,2.30
2023-03-29T08:15:40.041Z,2.00
2023-03-29T08:18:08.290Z,1.80
2023-03-29T08:20:37.901Z,1.95
2023-03-29T08:23:05.307Z,1.55
2023-03-29T08:25:32.513Z,1.60
2023-03-29T08:27:59.377Z,1.65
2023-03-29T08:30:26.352Z,1.50
2023-03-29T08:32:55.286Z,1.40
2023-03-29T08:35:25.192Z,1.75
2023-03-29T08:37:52.083Z,1.58
2023-03-29T08:40:29.996Z,1.55
2023-03-29T08:43:15.054Z,1.60
2023-03-29T08:46:34.286Z,1.63
2023-03-29T08:49:05.455Z,1.50
2023-03-29T08:51:39.462Z,1.42
2023-03-29T08:54:20.578Z,1.45
2023-03-29T08:56:52.774Z,1.30
2023-03-29T08:59:28.308Z,1.40
2023-03-29T09:01:58.754Z,1.38
2023-03-29T09:04:43.738Z,1.17
2023-03-29T09:07:14.474Z,1.23
2023-03-29T09:09:46.281Z,1.30
2023-03-29T09:12:44.597Z,1.20
2023-03-29T09:15:23.662Z,1.35
2023-03-29T09:18:43.929Z,1.20
2023-03-29T09:21:31.751Z,1.00
2023-03-29T09:24:13.591Z,1.10
2023-03-29T09:27:07.431Z,1.00
2023-03-29T09:29:50.448Z,1.05
2023-03-29T09:32:23.303Z,1.10
2023-03-29T09:35:03.683Z,1.00
2023-03-29T09:37:35.959Z,0.90
2023-03-29T09:40:13.136Z,1.20
2023-03-29T09:42:41.064Z,0.82
2023-03-29T09:45:11.216Z,1.00
2023-03-29T09:47:48.092Z,1.10
2023-03-29T09:50:30.305Z,1.10
2023-03-29T09:52:59.384Z,1.15
2023-03-29T09:55:30.218Z,1.20
2023-03-29T09:58:27.635Z,1.15
2023-03-29T10:00:59.881Z,1.20
2023-03-29T10:03:33.656Z,1.23
2023-03-29T10:06:07.072Z,1.02
2023-03-29T10:08:41.851Z,0.80
2023-03-29T10:11:20.293Z,0.70
2023-03-29T10:13:50.788Z,0.90
2023-03-29T10:16:25.871Z,0.82
2023-03-29T10:18:54.620Z,1.00
2023-03-29T10:21:25.518Z,1.45
2023-03-29T10:24:01.097Z,1.00
2023-03-29T10:26:32.720Z,0.80
2023-03-29T10:29:02.237Z,1.10
2023-03-29T10:31:33.062Z,0.98
2023-03-29T10:34:06.446Z,0.90
2023-03-29T10:36:34.103Z,1.00
2023-03-29T10:39:06.037Z,1.00
2023-03-29T10:41:37.816Z,1.00
2023-03-29T10:44:06.926Z,1.35
2023-03-29T10:46:47.120Z,1.00
2023-03-29T10:49:22.014Z,1.10
2023-03-29T10:51:50.784Z,0.90
2023-03-29T10:54:24.135Z,1.38
2023-03-29T10:57:05.338Z,1.10
2023-03-29T11:00:12.385Z,1.35
2023-03-29T11:02:45.336Z,1.85
2023-03-29T11:05:32.612Z,1.20
2023-03-29T11:08:16.644Z,1.00
2023-03-29T11:10:50.500Z,0.90
2023-03-29T11:13:59.408Z,1.02
2023-03-29T11:16:57.491Z,0.90
2023-03-29T11:19:35.960Z,0.95
2023-03-29T11:22:36.527Z,1.02
2023-03-29T11:25:30.131Z,0.88
2023-03-29T11:28:18.664Z,0.90
2023-03-29T11:30:59.844Z,0.70
2023-03-29T11:33:53.946Z,0.68
2023-03-29T11:36:45.662Z,0.90
2023-03-29T11:41:55.995Z,0.60
2023-03-29T11:44:27.461Z,0.70
2023-03-29T11:49:56.205Z,0.75
2023-03-29T11:52:29.267Z,0.40
2023-03-29T11:55:29.035Z,0.57
2023-03-29T11:58:11.008Z,0.70
2023-03-29T12:00:43.590Z,0.70
2023-03-29T12:03:38.689Z,0.60
2023-03-29T12:06:27.433Z,0.60
2023-03-29T12:09:14.854Z,0.80
2023-03-29T12:11:55.135Z,0.98
2023-03-29T12:14:29.899Z,0.60
2023-03-29T12:17:04.480Z,0.88
2023-03-29T12:19:51.568Z,0.60
2023-03-29T12:22:18.994Z,0.80
2023-03-29T12:24:48.974Z,0.80
2023-03-29T12:27:28.552Z,0.60
2023-03-29T12:30:04.228Z,0.50
2023-03-29T12:32:56.217Z,0.70
2023-03-29T12:35:38.645Z,0.50
2023-03-29T12:38:24.190Z,0.60
2023-03-29T12:41:16.917Z,0.55
2023-03-29T12:43:49.441Z,0.60
2023-03-29T12:46:25.924Z,0.77
2023-03-29T12:49:14.845Z,1.00
2023-03-29T12:51:44.232Z,0.70
2023-03-29T12:54:22.463Z,0.60
2023-03-29T12:56:52.436Z,0.57
2023-03-29T12:59:38.906Z,0.73
2023-03-29T13:02:15.036Z,0.80
2023-03-29T13:05:01.190Z,0.63
2023-03-29T13:07:48.518Z,0.70
2023-03-29T13:10:40.645Z,0.70
2023-03-29T13:13:36.300Z,0.70
2023-03-29T13:16:17.732Z,0.98
2023-03-29T13:19:15.137Z,0.93
2023-03-29T13:22:18.507Z,0.80
2023-03-29T13:25:16.198Z,0.73
2023-03-29T13:28:13.096Z,0.70
2023-03-29T13:30:58.487Z,1.20
2023-03-29T13:34:02.160Z,0.82
2023-03-29T13:37:04.812Z,0.95
2023-03-29T13:39:36.912Z,0.93
2023-03-29T13:42:34.426Z,0.90
2023-03-29T13:45:17.318Z,0.88
2023-03-29T13:48:02.413Z,0.80
2023-03-29T13:50:39.540Z,0.80
2023-03-29T13:53:10.001Z,0.70
2023-03-29T13:55:51.373Z,0.82
2023-03-29T13:58:42.992Z,0.77
2023-03-29T14:04:20.211Z,0.82
2023-03-29T14:06:53.435Z,1.30
2023-03-29T14:09:24.865Z,0.77
2023-03-29T14:14:26.404Z,0.75
2023-03-29T14:16:56.061Z,1.05
2023-03-29T14:19:36.982Z,0.93
2023-03-29T14:22:10.840Z,0.77
2023-03-29T14:24:53.108Z,0.90
2023-03-29T14:27:23.646Z,1.00
2023-03-29T14:29:52.334Z,1.10
2023-03-29T14:32:29.333Z,1.20
2023-03-29T14:34:56.630Z,1.00
2023-03-29T14:37:30.337Z,0.70
2023-03-29T14:39:59.313Z,1.20
2023-03-29T14:42:28.423Z,1.08
2023-03-29T14:45:06.248Z,0.90
2023-03-29T14:47:34.315Z,0.98
2023-03-29T14:50:02.512Z,0.90
2023-03-29T14:52:34.832Z,0.68
2023-03-29T14:55:05.834Z,1.02
2023-03-29T14:57:38.233Z,0.80
2023-03-29T15:00:37.902Z,0.90
2023-03-29T15:03:15.925Z,1.27
2023-03-29T15:06:04.802Z,0.80
2023-03-29T15:08:45.777Z,1.10
2023-03-29T15:11:27.403Z,0.88
2023-03-29T15:14:05.248Z,0.85
2023-03-29T15:16:38.999Z,1.08
2023-03-29T15:19:06.282Z,1.30
2023-03-29T15:21:36.228Z,0.90
2023-03-29T15:24:04.801Z,1.02
2023-03-29T15:26:34.017Z,1.08
2023-03-29T15:29:17.106Z,0.95
2023-03-29T15:31:59.140Z,2.35
2023-03-29T15:34:32.457Z,1.30
2023-03-29T15:37:00.844Z,1.10
2023-03-29T15:39:29.271Z,1.10
2023-03-29T15:41:57.500Z,1.10
2023-03-29T15:44:29.890Z,1.52
2023-03-29T15:46:57.798Z,1.17
2023-03-29T15:49:25.441Z,1.27
2023-03-29T15:51:54.039Z,1.20
2023-03-29T15:54:22.275Z,1.02
2023-03-29T15:56:57.172Z,1.40
2023-03-29T15:59:28.767Z,1.45
2023-03-29T16:04:23.263Z,1.35
2023-03-29T16:06:55.551Z,1.27
2023-03-29T16:09:25.763Z,1.10
2023-03-29T16:11:52.729Z,1.02
2023-03-29T16:14:24.251Z,1.08
2023-03-29T16:17:01.175Z,1.35
2023-03-29T16:19:32.768Z,1.23
2023-03-29T16:22:02.826Z,1.42
2023-03-29T16:24:32.314Z,1.40
2023-03-29T16:27:01.280Z,1.67
2023-03-29T16:29:31.161Z,1.15
2023-03-29T16:31:58.332Z,1.20
2023-03-29T16:34:25.412Z,1.67
2023-03-29T16:36:53.077Z,1.42
2023-03-29T16:39:25.467Z,1.30
2023-03-29T16:41:52.368Z,1.00
2023-03-29T16:44:26.849Z,1.45
2023-03-29T16:46:54.208Z,0.90
2023-03-29T16:49:21.464Z,1.25
2023-03-29T16:51:48.740Z,0.82
2023-03-29T16:54:19.857Z,1.33
2023-03-29T16:56:47.176Z,1.15
2023-03-29T16:59:14.475Z,1.20
2023-03-29T17:01:46.375Z,1.05
2023-03-29T17:04:18.214Z,1.30
2023-03-29T17:06:45.221Z,1.90
2023-03-29T17:09:12.106Z,1.55
2023-03-29T17:11:41.697Z,1.52
2023-03-29T17:14:08.699Z,1.42
2023-03-29T17:16:40.596Z,1.50
2023-03-29T17:19:12.318Z,2.58
2023-03-29T17:21:44.273Z,1.88
2023-03-29T17:24:11.126Z,1.70
2023-03-29T17:26:40.206Z,2.00
2023-03-29T17:29:07.176Z,1.67
2023-03-29T17:31:36.254Z,1.58
2023-03-29T17:34:03.500Z,1.90
2023-03-29T17:36:33.683Z,1.73
2023-03-29T17:39:05.913Z,2.10
2023-03-29T17:41:32.858Z,1.58
2023-03-29T17:44:01.183Z,1.52
2023-03-29T17:46:28.647Z,1.83
2023-03-29T17:48:58.136Z,2.05
2023-03-29T17:51:25.297Z,2.25
2023-03-29T17:53:52.605Z,2.17
2023-03-29T17:56:22.871Z,1.80
2023-03-29T17:58:50.924Z,1.60
2023-03-29T18:01:19.601Z,1.73
2023-03-29T18:03:49.319Z,1.83
2023-03-29T18:06:20.162Z,2.03
2023-03-29T18:08:47.465Z,2.28
2023-03-29T18:11:22.913Z,2.42
2023-03-29T18:13:51.842Z,3.75
2023-03-29T18:16:20.846Z,3.85
2023-03-29T18:18:50.888Z,3.30
2023-03-29T18:21:21.009Z,2.92
2023-03-29T18:23:52.891Z,2.42
2023-03-29T18:26:24.180Z,2.75
2023-03-29T18:28:54.306Z,2.47
2023-03-29T18:31:21.321Z,2.75
2023-03-29T18:33:48.340Z,2.63
2023-03-29T18:36:15.479Z,2.88
2023-03-29T18:38:44.521Z,2.35
2023-03-29T18:41:14.589Z,2.63
2023-03-29T18:43:44.317Z,2.47
2023-03-29T18:46:11.386Z,3.53
2023-03-29T18:48:41.918Z,3.95
2023-03-29T18:51:13.720Z,5.90
2023-03-29T18:53:42.928Z,8.13
2023-03-29T18:56:10.148Z,6.28
2023-03-29T18:58:37.073Z,4.70
2023-03-29T19:01:06.123Z,3.97
2023-03-29T19:03:34.730Z,3.47
2023-03-29T19:06:04.792Z,2.95
2023-03-29T19:08:32.935Z,3.53
2023-03-29T19:11:07.067Z,2.38
2023-03-29T19:13:34.707Z,1.67
2023-03-29T19:16:02.351Z,2.33
2023-03-29T19:18:32.433Z,6.82
2023-03-29T19:21:02.352Z,6.07
2023-03-29T19:23:29.303Z,5.18
2023-03-29T19:25:59.998Z,2.83
2023-03-29T19:28:27.525Z,2.33
2023-03-29T19:30:56.406Z,2.40
2023-03-29T19:33:26.933Z,1.52
2023-03-29T19:35:56.672Z,1.60
2023-03-29T19:38:23.675Z,1.42
2023-03-29T19:40:52.070Z,1.23
2023-03-29T19:43:20.745Z,1.65
2023-03-29T19:45:50.110Z,1.05
2023-03-29T19:50:48.425Z,1.70
2023-03-29T19:53:15.668Z,2.40
2023-03-29T19:55:45.042Z,2.40
2023-03-29T19:58:12.852Z,1.80
2023-03-29T20:00:42.241Z,1.30
2023-03-29T20:03:13.888Z,1.30
2023-03-29T20:05:41.078Z,1.58
2023-03-29T20:08:08.027Z,1.40
2023-03-29T20:10:36.437Z,1.52
2023-03-29T20:13:03.823Z,2.05
2023-03-29T20:15:31.031Z,1.45
2023-03-29T20:17:59.910Z,1.48
2023-03-29T20:20:28.370Z,1.48
2023-03-29T20:23:03.998Z,1.40
2023-03-29T20:25:32.589Z,1.40
2023-03-29T20:27:59.641Z,1.55
2023-03-29T20:30:29.163Z,1.20
2023-03-29T20:32:56.226Z,1.40
2023-03-29T20:35:25.989Z,1.70
2023-03-29T20:37:53.519Z,1.63
2023-03-29T20:40:23.001Z,1.55
2023-03-29T20:42:54.261Z,1.52
2023-03-29T20:45:21.279Z,1.73
2023-03-29T20:47:57.596Z,1.40
2023-03-29T20:50:28.100Z,1.70
2023-03-29T20:52:56.638Z,1.40
2023-03-29T20:55:24.424Z,1.52
2023-03-29T20:57:54.550Z,1.60
2023-03-29T21:00:25.315Z,1.40
2023-03-29T21:02:55.316Z,1.90
2023-03-29T21:05:23.062Z,1.63
2023-03-29T21:07:49.979Z,1.65
2023-03-29T21:10:17.497Z,2.15
2023-03-29T21:12:48.327Z,2.30
2023-03-29T21:15:17.816Z,3.08
2023-03-29T21:17:45.405Z,2.40
2023-03-29T21:20:14.715Z,2.28
2023-03-29T21:22:44.274Z,2.13
2023-03-29T21:25:14.546Z,2.97
2023-03-29T21:27:44.461Z,2.05
2023-03-29T21:30:14.184Z,1.95
2023-03-29T21:32:41.603Z,1.92
2023-03-29T21:35:09.671Z,2.67
2023-03-29T21:37:36.834Z,1.75
2023-03-29T21:40:06.032Z,2.08
2023-03-29T21:42:36.733Z,1.80
2023-03-29T21:45:04.588Z,2.10
2023-03-29T21:47:31.552Z,2.13
2023-03-29T21:49:58.603Z,1.65
2023-03-29T21:52:27.948Z,1.83
2023-03-29T21:54:57.365Z,1.67
2023-03-29T21:57:24.385Z,2.10
2023-03-29T21:59:53.948Z,1.90
2023-03-29T22:02:20.971Z,1.92
2023-03-29T22:04:50.200Z,1.80
2023-03-29T22:07:17.283Z,1.90
2023-03-29T22:09:44.387Z,2.20
2023-03-29T22:12:12.056Z,1.67
2023-03-29T22:14:41.356Z,1.55
2023-03-29T22:17:10.384Z,2.20
2023-03-29T22:19:41.710Z,1.63
2023-03-29T22:22:13.757Z,2.22
2023-03-29T22:24:41.915Z,1.70
2023-03-29T22:27:12.315Z,1.80
2023-03-29T22:29:39.237Z,1.98
2023-03-29T22:32:06.255Z,2.08
2023-03-29T22:34:35.783Z,2.05
2023-03-29T22:37:05.964Z,2.08
2023-03-29T22:39:38.124Z,2.08
2023-03-29T22:42:05.073Z,1.80
2023-03-29T22:44:34.139Z,1.80
2023-03-29T22:47:01.010Z,1.85
2023-03-29T22:49:27.864Z,1.80
2023-03-29T22:51:57.016Z,1.90
2023-03-29T22:54:23.944Z,1.90
2023-03-29T22:56:53.237Z,2.08
2023-03-29T22:59:20.701Z,1.70
2023-03-29T23:01:48.386Z,1.60
2023-03-29T23:04:15.875Z,1.67
2023-03-29T23:06:42.761Z,1.80
2023-03-29T23:09:16.372Z,1.75
2023-03-29T23:11:43.543Z,1.80
2023-03-29T23:14:14.845Z,1.65
2023-03-29T23:16:42.355Z,1.63
2023-03-29T23:19:11.928Z,2.95
2023-03-29T23:21:40.917Z,1.73
2023-03-29T23:24:08.564Z,1.67
2023-03-29T23:26:35.752Z,1.65
2023-03-29T23:29:04.100Z,1.75
2023-03-29T23:31:34.099Z,1.83
2023-03-29T23:34:03.350Z,2.22
2023-03-29T23:36:33.335Z,1.55
2023-03-29T23:39:00.466Z,1.92
2023-03-29T23:41:28.328Z,1.65
2023-03-29T23:43:57.590Z,1.30
2023-03-29T23:46:24.763Z,1.60
2023-03-29T23:48:52.586Z,2.20
2023-03-29T23:51:23.406Z,2.03
2023-03-29T23:53:52.756Z,1.60
2023-03-29T23:56:22.897Z,3.10
2023-03-29T23:58:52.337Z,1.70
